Bookmark and Share
Track history (hours):
 

Tousei Maru

Last reported at 2013-Apr-04 00:10 UTC. Time now 2014-Apr-24 22:21 UTC.
Position N 34°04' E 134°55'.
Warning: this ship's position is years out of date!

Length 90 m; draft 5.5 m.

Type: Cargo ship. MMSI: 431200194.

NotesDate/timePositionNaut miles runAvg speedWind from/ knotsBaromVisibWave heightAir tempDewpointWater temp
2013-Apr-04 00:10N 34°04' E 134°55'812.6
2013-Apr-03 23:30N 33°56' E 134°56'230 6.2
2013-Apr-02 10:22N 34°55' E 139°26'911.2
2013-Apr-02 09:33N 35°01' E 139°34'1413.8
2013-Apr-02 08:33N 35°11' E 139°45'1212.0
2013-Apr-02 07:33N 35°22' E 139°41'2 1.9
2013-Apr-02 06:31N 35°23' E 139°39'5 2.6
2013-Apr-02 04:34N 35°26' E 139°44'1616.0
2013-Apr-02 03:34N 35°34' E 140°01'4 4.1
2013-Apr-02 02:31N 35°37' E 140°05'0 0.0
2013-Apr-02 01:28N 35°37' E 140°05'1 1.4
2013-Apr-02 00:33N 35°35' E 140°05'1 0.5
2013-Apr-01 23:32N 35°36' E 140°06'0 0.0
2013-Apr-01 22:33N 35°36' E 140°06'3 3.5
2013-Apr-01 21:33N 35°34' E 140°02'1414.2
2013-Apr-01 20:33N 35°26' E 139°48'1111.3
2013-Apr-01 19:33N 35°15' E 139°47'1312.6
2013-Apr-01 18:33N 35°03' E 139°41'1514.7
2013-Apr-01 17:33N 34°53' E 139°27'4814.9
2013-Apr-01 14:20N 34°31' E 138°36'182 7.9
2013-Mar-31 15:15N 33°56' E 134°60'1014.7
2013-Mar-31 14:33N 34°06' E 134°58'1414.1
2013-Mar-31 13:33N 34°20' E 134°59'1414.0
2013-Mar-31 12:33N 34°33' E 135°03'9 9.2
2013-Mar-31 11:33N 34°34' E 134°51'28 1.8
2013-Mar-30 20:04N 34°07' E 134°45'1213.4
2013-Mar-30 19:08N 33°58' E 134°55'234 7.9
2013-Mar-29 13:33N 34°57' E 139°29'1313.5
2013-Mar-29 12:34N 35°05' E 139°42'1312.7
2013-Mar-29 11:34N 35°18' E 139°44'7 6.7
2013-Mar-29 10:32N 35°23' E 139°39'0 0.0
2013-Mar-29 09:32N 35°23' E 139°39'0 0.0
2013-Mar-29 08:32N 35°23' E 139°39'0 0.0
2013-Mar-29 07:32N 35°23' E 139°39'0 0.0
2013-Mar-29 06:32N 35°23' E 139°39'3 1.7
2013-Mar-29 04:34N 35°24' E 139°43'1515.2
2013-Mar-29 03:34N 35°33' E 139°58'7 6.7
2013-Mar-29 02:33N 35°37' E 140°05'0 0.0
2013-Mar-29 01:33N 35°37' E 140°05'0 0.3
2013-Mar-29 00:33N 35°36' E 140°05'1 0.9
2013-Mar-28 23:32N 35°36' E 140°05'0 0.0
2013-Mar-28 22:33N 35°36' E 140°05'8 8.1
2013-Mar-28 21:33N 35°32' E 139°57'1414.0
2013-Mar-28 20:33N 35°21' E 139°45'1212.0
2013-Mar-28 19:34N 35°10' E 139°46'1413.7
2013-Mar-28 18:33N 34°58' E 139°36'5814.5
2013-Mar-28 14:33N 34°31' E 138°34'182 7.6
2013-Mar-27 14:26N 33°55' E 134°58'1314.8
2013-Mar-27 13:33N 34°05' E 134°48'4 0.2
2013-Mar-26 19:27N 34°08' E 134°45'1514.9
2013-Mar-26 18:25N 33°56' E 134°57'229 7.9
2013-Mar-25 13:22N 34°55' E 139°25'1012.8
2013-Mar-25 12:33N 35°01' E 139°35'1414.4
2013-Mar-25 11:33N 35°13' E 139°46'1212.4
2013-Mar-25 10:33N 35°24' E 139°39'0 0.2
2013-Mar-25 09:31N 35°23' E 139°39'0 0.0
2013-Mar-25 08:31N 35°23' E 139°39'0 0.0
2013-Mar-25 07:28N 35°23' E 139°39'1 1.6
2013-Mar-25 06:33N 35°23' E 139°41'1515.3
2013-Mar-25 05:33N 35°32' E 139°56'9 8.8
2013-Mar-25 04:34N 35°37' E 140°05'0 0.0
2013-Mar-25 03:28N 35°37' E 140°05'0 0.0
2013-Mar-25 02:33N 35°37' E 140°05'0 0.0
2013-Mar-25 01:33N 35°37' E 140°05'0 0.4
2013-Mar-25 00:34N 35°36' E 140°05'  

Dump ship's entire track history

sailing weather and tide predictions

Tousei Maru — JH3266 — position and weather